Time;durP1;ratioP1;P1;durP2;ratioP2;P2;SDS_P1;SDS_P2;PMS_P1;PMS_P2;Temp;Humidity;BMP_temperature;BMP_pressure;BME280_temperature;BME280_humidity;BME280_pressure;Samples;Min_cycle;Max_cycle;Signal;HPM_P1;HPM_P2
2021/07/23 00:02:09;;;;;;;9.68;5.32;;;16.00;78.80;;;;;;5057202;28;20175;-91
2021/07/23 00:04:35;;;;;;;11.98;6.78;;;15.90;79.20;;;;;;5057027;28;20202;-91
2021/07/23 00:07:00;;;;;;;12.05;5.80;;;15.90;78.90;;;;;;5056992;28;20183;-89
2021/07/23 00:09:26;;;;;;;7.18;5.60;;;15.80;79.20;;;;;;5056996;28;20273;-90
2021/07/23 00:11:52;;;;;;;9.38;6.00;;;15.90;79.10;;;;;;5056675;28;20179;-89
2021/07/23 00:14:17;;;;;;;9.60;5.68;;;15.90;78.80;;;;;;5056582;28;20199;-89
2021/07/23 00:16:43;;;;;;;9.75;6.25;;;15.90;78.90;;;;;;5056730;28;20631;-89
2021/07/23 00:19:09;;;;;;;8.32;5.97;;;15.90;79.00;;;;;;5056384;28;20242;-90
2021/07/23 00:21:34;;;;;;;12.02;6.25;;;16.00;78.70;;;;;;5056519;28;20199;-89
2021/07/23 00:24:00;;;;;;;8.90;6.03;;;15.90;79.00;;;;;;5056510;28;20183;-89
2021/07/23 00:26:26;;;;;;;13.45;6.85;;;16.00;79.20;;;;;;5056440;28;20676;-89
2021/07/23 00:28:51;;;;;;;11.13;7.43;;;16.00;79.70;;;;;;5056249;28;20295;-90
2021/07/23 00:31:17;;;;;;;8.05;6.32;;;16.00;79.90;;;;;;5056303;28;20183;-90
2021/07/23 00:33:43;;;;;;;11.52;6.65;;;16.00;80.00;;;;;;5055725;28;20549;-89
2021/07/23 00:36:08;;;;;;;9.70;6.45;;;16.00;80.10;;;;;;5056170;28;20167;-89
2021/07/23 00:38:34;;;;;;;11.65;6.43;;;16.00;79.80;;;;;;5056049;28;20194;-89
2021/07/23 00:41:00;;;;;;;7.88;6.05;;;16.10;79.30;;;;;;5056187;28;20171;-91
2021/07/23 00:43:25;;;;;;;8.43;5.38;;;16.10;79.80;;;;;;5056954;28;20274;-90
2021/07/23 00:45:52;;;;;;;9.15;5.88;;;16.10;79.80;;;;;;5056076;28;20270;-90
2021/07/23 00:48:18;;;;;;;10.75;5.43;;;16.10;79.20;;;;;;5055892;28;20203;-90
2021/07/23 00:50:45;;;;;;;10.02;5.82;;;16.10;79.30;;;;;;5055947;28;20201;-90
2021/07/23 00:53:11;;;;;;;8.40;5.97;;;16.20;79.30;;;;;;5056240;28;20202;-90
2021/07/23 00:55:41;;;;;;;8.30;6.40;;;16.20;79.40;;;;;;5055879;28;20175;-90
2021/07/23 00:58:07;;;;;;;11.82;7.50;;;16.20;79.80;;;;;;5055888;28;20773;-90
2021/07/23 01:00:33;;;;;;;8.73;6.25;;;16.20;80.10;;;;;;5056134;28;20179;-90
2021/07/23 01:03:00;;;;;;;13.55;7.32;;;16.20;80.80;;;;;;5055815;28;20227;-91
2021/07/23 01:05:26;;;;;;;10.48;7.20;;;16.30;81.90;;;;;;5056082;28;20639;-89
2021/07/23 01:07:52;;;;;;;11.75;8.32;;;16.30;81.40;;;;;;5055599;28;20175;-90
2021/07/23 01:10:18;;;;;;;10.43;7.15;;;16.20;82.80;;;;;;5055601;28;20179;-90
2021/07/23 01:12:44;;;;;;;10.15;7.82;;;16.20;82.30;;;;;;5055564;28;20176;-88
2021/07/23 01:15:10;;;;;;;10.65;8.30;;;16.20;83.00;;;;;;5055560;28;20178;-88
2021/07/23 01:17:38;;;;;;;11.48;7.80;;;16.00;83.70;;;;;;5055573;28;20175;-88
2021/07/23 01:20:13;;;;;;;11.95;7.75;;;16.00;84.10;;;;;;5055807;28;20610;-88
2021/07/23 01:22:41;;;;;;;13.25;7.88;;;16.10;83.80;;;;;;5055521;28;20630;-89
2021/07/23 01:25:07;;;;;;;11.75;8.05;;;16.10;83.80;;;;;;5055477;28;20183;-89
2021/07/23 01:27:40;;;;;;;10.25;6.93;;;16.10;84.00;;;;;;5055489;28;20179;-89
2021/07/23 01:30:07;;;;;;;12.05;8.23;;;16.10;83.60;;;;;;5055425;28;20206;-88
2021/07/23 01:32:34;;;;;;;11.73;8.23;;;16.20;83.30;;;;;;5055336;28;20241;-89
2021/07/23 01:34:59;;;;;;;14.65;7.97;;;16.20;83.80;;;;;;5055276;28;20732;-89
2021/07/23 01:37:26;;;;;;;12.40;8.77;;;16.20;83.40;;;;;;5055349;28;20175;-89
2021/07/23 01:39:53;;;;;;;8.98;8.07;;;16.20;83.20;;;;;;5055141;28;20234;-89
2021/07/23 01:42:19;;;;;;;11.75;7.75;;;16.10;84.40;;;;;;5055308;28;20168;-89
2021/07/23 01:44:45;;;;;;;9.30;7.47;;;16.00;84.70;;;;;;5056197;28;20202;-89
2021/07/23 01:47:10;;;;;;;11.73;6.93;;;16.10;84.00;;;;;;5059417;28;20225;-89
2021/07/23 01:49:36;;;;;;;12.65;7.60;;;16.20;83.60;;;;;;5059296;28;20195;-89
2021/07/23 01:52:02;;;;;;;13.57;7.72;;;16.20;83.40;;;;;;5059534;28;20183;-89
2021/07/23 01:54:28;;;;;;;9.65;6.35;;;16.30;83.10;;;;;;5059652;28;20225;-89
2021/07/23 01:56:54;;;;;;;11.23;7.07;;;16.30;83.30;;;;;;5059466;28;20262;-89
2021/07/23 01:59:20;;;;;;;11.70;6.90;;;16.30;83.20;;;;;;5059538;28;20229;-89
2021/07/23 02:01:45;;;;;;;12.50;7.30;;;16.30;83.00;;;;;;5077091;28;20171;-89
2021/07/23 02:04:11;;;;;;;10.77;7.35;;;16.30;82.80;;;;;;5059131;28;20175;-89
2021/07/23 02:06:37;;;;;;;9.98;7.50;;;16.30;82.60;;;;;;5059104;28;20182;-89
2021/07/23 02:09:02;;;;;;;16.33;7.47;;;16.30;82.60;;;;;;5059822;28;20647;-89
2021/07/23 02:11:30;;;;;;;11.75;7.00;;;16.30;83.20;;;;;;5058991;28;20527;-89
2021/07/23 02:14:01;;;;;;;10.93;7.97;;;16.30;83.70;;;;;;5058817;28;20195;-89
2021/07/23 02:16:27;;;;;;;10.25;7.03;;;16.30;83.40;;;;;;5058937;28;20163;-89
2021/07/23 02:18:52;;;;;;;12.38;8.05;;;16.30;83.30;;;;;;5058673;28;20211;-89
2021/07/23 02:21:18;;;;;;;10.98;7.28;;;16.30;83.40;;;;;;5058841;28;20312;-89
2021/07/23 02:23:44;;;;;;;9.88;6.90;;;16.40;83.30;;;;;;5058722;28;20543;-89
2021/07/23 02:26:20;;;;;;;12.80;7.60;;;16.40;83.20;;;;;;5058748;28;20175;-89
2021/07/23 02:28:46;;;;;;;11.23;7.32;;;16.40;83.10;;;;;;5058516;28;20736;-89
2021/07/23 02:31:12;;;;;;;11.50;7.00;;;16.50;83.10;;;;;;5059192;28;20538;-89
2021/07/23 02:33:38;;;;;;;11.25;7.13;;;16.40;83.20;;;;;;5058404;28;20671;-89
2021/07/23 02:36:05;;;;;;;14.65;8.18;;;16.40;83.00;;;;;;5058567;28;20176;-89
2021/07/23 02:38:30;;;;;;;12.55;7.57;;;16.40;83.10;;;;;;5058421;28;20253;-89
2021/07/23 02:40:56;;;;;;;11.68;7.72;;;16.40;83.30;;;;;;5058464;28;20179;-89
2021/07/23 02:43:23;;;;;;;12.25;7.63;;;16.40;83.40;;;;;;5058428;28;20610;-89
2021/07/23 02:45:49;;;;;;;12.55;7.53;;;16.30;83.70;;;;;;5058354;28;20183;-89
2021/07/23 02:48:14;;;;;;;15.23;8.85;;;16.30;84.10;;;;;;5058245;28;20199;-89
2021/07/23 02:50:40;;;;;;;16.30;8.98;;;16.30;84.10;;;;;;5058298;28;20171;-89
2021/07/23 02:53:06;;;;;;;11.95;7.68;;;16.30;84.30;;;;;;5058094;28;20179;-89
2021/07/23 02:55:31;;;;;;;10.35;6.70;;;16.30;84.00;;;;;;5057723;28;20175;-89
2021/07/23 02:57:57;;;;;;;11.35;7.32;;;16.30;83.80;;;;;;5058035;28;20175;-89
2021/07/23 03:00:23;;;;;;;13.10;7.10;;;16.30;83.50;;;;;;5058051;28;20631;-89
2021/07/23 03:02:49;;;;;;;11.43;7.15;;;16.30;83.50;;;;;;5058361;28;20175;-89
2021/07/23 03:05:14;;;;;;;13.15;6.97;;;16.30;83.40;;;;;;5058131;28;20175;-89
2021/07/23 03:07:40;;;;;;;12.48;6.75;;;16.30;83.60;;;;;;5058088;28;20179;-89
2021/07/23 03:10:06;;;;;;;14.70;7.45;;;16.30;83.40;;;;;;5058069;28;20198;-89
2021/07/23 03:12:33;;;;;;;18.75;8.15;;;16.30;82.80;;;;;;5057869;28;20171;-89
2021/07/23 03:14:59;;;;;;;12.82;7.72;;;16.30;83.40;;;;;;5057809;28;20195;-89
2021/07/23 03:17:24;;;;;;;12.00;7.63;;;16.30;83.40;;;;;;5057822;28;20174;-89
2021/07/23 03:19:50;;;;;;;11.85;7.50;;;16.20;83.40;;;;;;5057686;28;20687;-89
2021/07/23 03:22:16;;;;;;;9.25;6.80;;;16.30;83.10;;;;;;5057631;28;20537;-89
2021/07/23 03:24:42;;;;;;;10.55;7.53;;;16.30;82.90;;;;;;5057481;28;20546;-89
2021/07/23 03:27:07;;;;;;;11.10;7.53;;;16.30;83.20;;;;;;5057693;28;20732;-89
2021/07/23 03:29:33;;;;;;;12.57;7.40;;;16.20;83.10;;;;;;5057504;28;20195;-89
2021/07/23 03:31:59;;;;;;;12.90;7.22;;;16.10;83.50;;;;;;5057750;28;20182;-89
2021/07/23 03:34:25;;;;;;;11.25;7.85;;;16.00;83.70;;;;;;5057404;28;20573;-89
2021/07/23 03:36:50;;;;;;;10.93;8.15;;;16.10;83.40;;;;;;5057482;28;20545;-89
2021/07/23 03:39:16;;;;;;;11.40;7.07;;;16.10;83.50;;;;;;5057813;28;20686;-89
2021/07/23 03:41:42;;;;;;;13.25;7.57;;;16.20;83.30;;;;;;5057432;28;20635;-89
2021/07/23 03:44:08;;;;;;;16.48;7.47;;;16.20;83.20;;;;;;5057273;28;20186;-89
2021/07/23 03:46:34;;;;;;;8.95;6.65;;;16.10;83.10;;;;;;5057216;28;20175;-89
2021/07/23 03:48:59;;;;;;;10.70;6.97;;;16.10;83.10;;;;;;5057099;28;20249;-89
2021/07/23 03:51:25;;;;;;;12.77;6.78;;;16.20;83.00;;;;;;5057195;28;20229;-89
2021/07/23 03:53:51;;;;;;;11.05;6.47;;;16.20;82.90;;;;;;5057310;28;20196;-89
2021/07/23 03:56:16;;;;;;;11.57;7.78;;;16.20;82.70;;;;;;5057310;28;20185;-89
2021/07/23 03:58:42;;;;;;;9.45;6.35;;;16.10;83.20;;;;;;5056866;28;20191;-89
2021/07/23 04:01:08;;;;;;;11.80;7.22;;;16.20;83.00;;;;;;5057293;28;20179;-89
2021/07/23 04:03:33;;;;;;;14.25;7.65;;;16.20;83.00;;;;;;5056923;28;20206;-89
2021/07/23 04:06:00;;;;;;;14.07;6.93;;;16.20;83.20;;;;;;5056852;28;20172;-89
2021/07/23 04:08:26;;;;;;;13.10;7.50;;;16.20;83.10;;;;;;5055822;28;20670;-89
2021/07/23 04:10:52;;;;;;;13.60;8.77;;;16.20;82.90;;;;;;5056776;28;20191;-89
2021/07/23 04:13:17;;;;;;;14.70;7.50;;;16.20;82.70;;;;;;5074515;28;20195;-89
2021/07/23 04:15:43;;;;;;;12.82;7.85;;;16.30;82.60;;;;;;5056605;28;20172;-89
2021/07/23 04:18:09;;;;;;;7.57;6.78;;;16.30;82.80;;;;;;5056433;28;20199;-88
2021/07/23 04:20:34;;;;;;;15.00;7.32;;;16.30;82.60;;;;;;5056538;28;20167;-89
2021/07/23 04:23:00;;;;;;;11.18;7.63;;;16.30;82.60;;;;;;5056760;28;20183;-89
2021/07/23 04:25:26;;;;;;;13.38;8.07;;;16.30;82.60;;;;;;5056553;28;20178;-89
2021/07/23 04:27:51;;;;;;;12.30;8.27;;;16.20;82.80;;;;;;5056376;28;20584;-89
2021/07/23 04:30:17;;;;;;;10.90;7.78;;;16.20;82.70;;;;;;5056326;28;20207;-88
2021/07/23 04:32:44;;;;;;;15.88;8.57;;;16.20;82.50;;;;;;5074177;28;20168;-89
2021/07/23 04:35:10;;;;;;;12.75;8.70;;;16.20;82.70;;;;;;5074095;28;20689;-89
2021/07/23 04:37:35;;;;;;;10.15;8.13;;;16.20;82.50;;;;;;5074071;28;20171;-89
2021/07/23 04:40:06;;;;;;;13.25;8.07;;;16.10;82.90;;;;;;5056097;28;20671;-88
2021/07/23 04:42:32;;;;;;;9.15;7.63;;;16.20;82.60;;;;;;5056181;28;20174;-89
2021/07/23 04:44:58;;;;;;;9.13;7.10;;;16.20;82.30;;;;;;5056031;28;20180;-88
2021/07/23 04:47:23;;;;;;;13.15;7.15;;;16.20;82.40;;;;;;5056047;28;20174;-89
2021/07/23 04:49:49;;;;;;;11.15;7.45;;;16.30;82.20;;;;;;5055888;28;20199;-89
2021/07/23 04:52:15;;;;;;;13.70;7.90;;;16.30;82.50;;;;;;5055968;28;20183;-89
2021/07/23 04:54:41;;;;;;;10.18;8.07;;;16.20;82.70;;;;;;5073803;28;20198;-89
2021/07/23 04:57:12;;;;;;;13.60;7.30;;;16.20;82.70;;;;;;5056151;28;20210;-89
2021/07/23 04:59:39;;;;;;;9.32;7.70;;;16.10;82.80;;;;;;5056382;28;20223;-88
2021/07/23 05:02:04;;;;;;;10.40;7.97;;;16.10;83.10;;;;;;5056134;28;20229;-89
2021/07/23 05:04:34;;;;;;;17.75;8.23;;;16.10;83.30;;;;;;5055865;28;20171;-89
2021/07/23 05:07:00;;;;;;;13.20;8.45;;;16.10;83.50;;;;;;5055690;28;20261;-89
2021/07/23 05:09:25;;;;;;;14.15;8.80;;;16.10;83.90;;;;;;5055893;28;20253;-89
2021/07/23 05:11:51;;;;;;;11.77;7.57;;;16.10;83.90;;;;;;5055699;28;20635;-88
2021/07/23 05:14:17;;;;;;;11.65;7.65;;;16.10;84.10;;;;;;5055585;28;20203;-89
2021/07/23 05:16:43;;;;;;;10.73;7.05;;;16.00;84.40;;;;;;5073524;28;20542;-89
2021/07/23 05:19:12;;;;;;;11.60;7.22;;;15.90;84.50;;;;;;5055247;28;20301;-89
2021/07/23 05:21:38;;;;;;;10.13;7.45;;;15.90;84.50;;;;;;5055754;28;20176;-89
2021/07/23 05:24:07;;;;;;;11.88;7.10;;;16.00;84.40;;;;;;5055601;28;20171;-89
2021/07/23 05:26:35;;;;;;;10.65;7.45;;;16.00;84.10;;;;;;5055384;28;20551;-89
2021/07/23 05:29:02;;;;;;;11.18;7.63;;;16.10;83.80;;;;;;5073312;28;20191;-89
2021/07/23 05:31:28;;;;;;;8.55;6.97;;;16.20;83.60;;;;;;5055420;28;20182;-88
2021/07/23 05:33:57;;;;;;;13.60;7.43;;;16.20;83.60;;;;;;5055394;28;20195;-89
2021/07/23 05:36:24;;;;;;;11.00;7.10;;;16.20;83.70;;;;;;5055305;28;20586;-89
2021/07/23 05:38:49;;;;;;;8.77;6.35;;;16.00;83.70;;;;;;5055364;28;20213;-88
2021/07/23 05:41:15;;;;;;;9.02;6.88;;;16.10;83.90;;;;;;5055250;28;20714;-89
2021/07/23 05:43:40;;;;;;;13.68;6.47;;;16.10;83.80;;;;;;5055423;28;20266;-89
2021/07/23 05:46:06;;;;;;;9.90;6.65;;;16.20;83.50;;;;;;5056122;28;20175;-88
2021/07/23 05:48:35;;;;;;;10.20;7.10;;;16.20;83.20;;;;;;5055198;28;20230;-89
2021/07/23 05:51:02;;;;;;;8.00;7.20;;;16.20;82.70;;;;;;5055256;28;20262;-89
2021/07/23 05:53:28;;;;;;;9.75;6.78;;;16.30;82.80;;;;;;5055214;28;20234;-89
2021/07/23 05:55:53;;;;;;;10.52;7.40;;;16.30;82.60;;;;;;5055119;28;20560;-89
2021/07/23 05:58:19;;;;;;;15.57;7.53;;;16.40;82.90;;;;;;5055047;28;20261;-89
2021/07/23 06:00:45;;;;;;;11.63;7.32;;;16.30;82.90;;;;;;5073348;28;20168;-89
2021/07/23 06:03:10;;;;;;;12.40;7.63;;;16.40;82.80;;;;;;5055933;28;20274;-88
2021/07/23 06:05:36;;;;;;;12.30;8.15;;;16.40;82.90;;;;;;5055400;28;20175;-88
2021/07/23 06:08:02;;;;;;;14.30;7.75;;;16.40;82.90;;;;;;5073198;28;20221;-88
2021/07/23 06:10:28;;;;;;;14.73;7.80;;;16.40;83.30;;;;;;5073072;28;20171;-88
2021/07/23 06:12:53;;;;;;;10.73;8.02;;;16.30;83.40;;;;;;5054976;28;20266;-89
2021/07/23 06:15:20;;;;;;;14.93;8.40;;;16.20;83.20;;;;;;5055001;28;20267;-88
2021/07/23 06:17:45;;;;;;;12.77;8.35;;;16.20;83.70;;;;;;5054605;28;20172;-88
2021/07/23 06:20:11;;;;;;;13.85;8.38;;;16.20;83.60;;;;;;5054867;28;20564;-89
2021/07/23 06:22:37;;;;;;;13.13;7.97;;;16.10;83.60;;;;;;5054908;28;20168;-88
2021/07/23 06:25:03;;;;;;;15.02;8.57;;;16.00;84.10;;;;;;5055182;28;20187;-88
2021/07/23 06:27:28;;;;;;;12.02;9.65;;;16.00;84.40;;;;;;5072725;28;20171;-88
2021/07/23 06:29:55;;;;;;;12.40;9.43;;;15.90;85.30;;;;;;5054811;28;20729;-88
2021/07/23 06:32:22;;;;;;;15.75;10.75;;;15.80;84.90;;;;;;5058270;28;20179;-88
2021/07/23 06:34:48;;;;;;;16.95;11.35;;;15.70;85.30;;;;;;5058455;28;20257;-88
2021/07/23 06:37:20;;;;;;;15.82;10.18;;;15.80;85.40;;;;;;5058597;28;20647;-88
2021/07/23 06:39:46;;;;;;;17.73;9.77;;;15.80;85.70;;;;;;5058448;28;20571;-89
2021/07/23 06:42:12;;;;;;;14.68;8.95;;;15.80;85.60;;;;;;5058555;28;20199;-88
2021/07/23 06:44:38;;;;;;;14.98;10.20;;;15.90;85.50;;;;;;5058384;28;20187;-88
2021/07/23 06:47:03;;;;;;;20.10;10.85;;;16.00;85.10;;;;;;5076273;28;20175;-88
2021/07/23 06:49:29;;;;;;;12.80;9.65;;;16.10;84.80;;;;;;5058262;28;20239;-88
2021/07/23 06:51:54;;;;;;;15.88;10.30;;;16.10;84.50;;;;;;5058236;28;20310;-88
2021/07/23 06:54:20;;;;;;;13.10;9.25;;;16.10;84.20;;;;;;5058180;28;20207;-88
2021/07/23 06:56:46;;;;;;;12.80;7.80;;;16.10;84.30;;;;;;5058146;28;20183;-89
2021/07/23 06:59:11;;;;;;;12.48;9.48;;;16.20;84.30;;;;;;5058181;28;20196;-88
2021/07/23 07:01:37;;;;;;;13.43;8.60;;;16.20;84.10;;;;;;5058131;28;20184;-88
2021/07/23 07:04:03;;;;;;;14.82;9.60;;;16.20;83.70;;;;;;5075919;28;20171;-88
2021/07/23 07:06:28;;;;;;;15.80;9.27;;;16.10;83.90;;;;;;5058874;28;20179;-88
2021/07/23 07:08:54;;;;;;;12.95;9.02;;;16.10;83.80;;;;;;5058489;28;20288;-89
2021/07/23 07:11:20;;;;;;;16.52;8.73;;;16.10;84.20;;;;;;5075790;28;20186;-88
2021/07/23 07:13:45;;;;;;;15.00;8.93;;;16.10;84.30;;;;;;5058066;28;20203;-89
2021/07/23 07:16:11;;;;;;;10.80;8.60;;;16.20;84.30;;;;;;5057854;28;20270;-88
2021/07/23 07:18:37;;;;;;;12.48;9.10;;;16.20;84.00;;;;;;5057636;28;20218;-88
2021/07/23 07:21:05;;;;;;;16.58;8.88;;;16.30;83.80;;;;;;5057724;28;20207;-88
2021/07/23 07:23:31;;;;;;;14.00;8.85;;;16.20;83.40;;;;;;5058496;28;20630;-88
2021/07/23 07:25:56;;;;;;;11.48;9.45;;;16.30;83.50;;;;;;5057594;28;20187;-88
2021/07/23 07:28:22;;;;;;;10.73;8.30;;;16.30;83.30;;;;;;5075478;28;20218;-88
2021/07/23 07:30:47;;;;;;;15.27;9.10;;;16.40;83.30;;;;;;5075471;28;20183;-88
2021/07/23 07:33:13;;;;;;;14.93;8.85;;;16.50;83.10;;;;;;5057443;28;20182;-88
2021/07/23 07:35:43;;;;;;;12.35;8.98;;;16.50;82.90;;;;;;5057462;28;20186;-88
2021/07/23 07:38:09;;;;;;;11.95;8.23;;;16.60;82.50;;;;;;5057476;28;20266;-88
2021/07/23 07:40:35;;;;;;;12.02;7.93;;;16.70;81.70;;;;;;5057364;28;20664;-88
2021/07/23 07:43:00;;;;;;;13.60;8.52;;;16.70;81.80;;;;;;5057239;28;20171;-89
2021/07/23 07:45:26;;;;;;;16.05;8.82;;;16.60;81.70;;;;;;5058472;28;20209;-88
2021/07/23 07:47:52;;;;;;;15.00;9.32;;;16.60;82.50;;;;;;5057219;28;20266;-88
2021/07/23 07:50:18;;;;;;;10.85;8.13;;;16.50;83.10;;;;;;5057147;28;20203;-88
2021/07/23 07:52:43;;;;;;;14.43;8.13;;;16.60;83.20;;;;;;5057833;28;20617;-88
2021/07/23 07:55:10;;;;;;;14.75;9.07;;;16.60;83.20;;;;;;5074820;28;20610;-88
2021/07/23 07:57:35;;;;;;;13.88;8.63;;;16.60;83.20;;;;;;5056950;28;20175;-88
2021/07/23 08:00:01;;;;;;;14.63;8.75;;;16.60;83.30;;;;;;5056868;28;20241;-88
2021/07/23 08:02:27;;;;;;;13.93;8.65;;;16.70;83.30;;;;;;5056928;28;20250;-88
2021/07/23 08:04:53;;;;;;;15.32;8.95;;;16.70;83.30;;;;;;5074602;28;20190;-89
2021/07/23 08:07:21;;;;;;;9.80;7.47;;;16.70;83.40;;;;;;5074617;28;20182;-88
2021/07/23 08:09:53;;;;;;;12.38;7.53;;;16.70;83.30;;;;;;5056702;28;20195;-88
2021/07/23 08:12:22;;;;;;;12.05;8.35;;;16.70;83.20;;;;;;5056581;28;20163;-88
2021/07/23 08:14:48;;;;;;;14.18;9.05;;;16.70;83.10;;;;;;5056567;28;20230;-88
2021/07/23 08:17:14;;;;;;;15.60;9.93;;;16.80;83.20;;;;;;5056448;28;20202;-89
2021/07/23 08:19:40;;;;;;;15.55;9.35;;;16.70;83.00;;;;;;5074828;28;20203;-88
2021/07/23 08:22:07;;;;;;;13.88;9.02;;;16.70;83.60;;;;;;5056538;28;20183;-89
2021/07/23 08:24:33;;;;;;;12.77;8.75;;;16.60;84.10;;;;;;5056643;28;20179;-88
2021/07/23 08:26:59;;;;;;;16.83;9.38;;;16.60;83.70;;;;;;5056674;28;20179;-88
2021/07/23 08:29:24;;;;;;;15.00;8.38;;;16.50;83.70;;;;;;5074795;28;20581;-89
2021/07/23 08:31:50;;;;;;;13.88;8.60;;;16.50;84.30;;;;;;5056515;28;20186;-89
2021/07/23 08:34:16;;;;;;;8.68;7.15;;;16.50;84.50;;;;;;5074352;28;20194;-88
2021/07/23 08:36:42;;;;;;;10.02;7.22;;;16.60;83.40;;;;;;5056479;28;20171;-88
2021/07/23 08:39:07;;;;;;;12.75;7.20;;;16.70;83.30;;;;;;5056171;28;20196;-89
2021/07/23 08:41:35;;;;;;;9.60;7.07;;;16.70;82.40;;;;;;5056178;28;20167;-89
2021/07/23 08:44:04;;;;;;;10.90;7.20;;;16.80;81.90;;;;;;5056206;28;20182;-89
2021/07/23 08:46:31;;;;;;;11.05;7.78;;;16.90;82.40;;;;;;5056103;28;20175;-89
2021/07/23 08:48:57;;;;;;;17.88;8.20;;;17.00;82.00;;;;;;5073893;28;20183;-89
2021/07/23 08:51:23;;;;;;;14.00;8.13;;;17.10;81.10;;;;;;5056049;28;20225;-88
2021/07/23 08:53:49;;;;;;;12.45;8.52;;;17.20;81.60;;;;;;5055438;28;20206;-88
2021/07/23 08:56:14;;;;;;;12.88;8.88;;;17.20;80.80;;;;;;5056271;28;20175;-88
2021/07/23 08:58:40;;;;;;;11.43;8.95;;;17.20;81.10;;;;;;5055799;28;20223;-88
2021/07/23 09:01:06;;;;;;;12.93;9.05;;;17.20;80.50;;;;;;5055869;28;20175;-88
2021/07/23 09:03:33;;;;;;;13.13;8.85;;;17.10;80.90;;;;;;5056450;28;20304;-88
2021/07/23 09:06:16;;;;;;;12.93;8.10;;;17.20;80.80;;;;;;5073703;28;20178;-89
2021/07/23 09:08:49;;;;;;;12.57;8.98;;;17.20;80.70;;;;;;5055754;28;20203;-88
2021/07/23 09:11:24;;;;;;;15.32;8.98;;;17.30;80.00;;;;;;5055756;28;20167;-88
2021/07/23 09:13:49;;;;;;;13.43;8.95;;;17.30;79.50;;;;;;5055562;28;20731;-88
2021/07/23 09:16:25;;;;;;;9.73;8.07;;;17.50;80.20;;;;;;5056412;28;20262;-88
2021/07/23 09:19:07;;;;;;;13.93;8.57;;;17.80;79.70;;;;;;5055518;28;20708;-88
2021/07/23 09:21:37;;;;;;;12.93;8.45;;;17.80;77.90;;;;;;5073357;28;20172;-88
2021/07/23 09:24:07;;;;;;;11.95;9.10;;;17.90;78.00;;;;;;5073345;28;20175;-88
2021/07/23 09:26:46;;;;;;;8.75;7.82;;;17.90;78.10;;;;;;5055689;28;20183;-88
2021/07/23 09:29:13;;;;;;;11.75;8.88;;;17.80;77.40;;;;;;5055635;28;20191;-88
2021/07/23 09:31:39;;;;;;;11.45;9.57;;;17.80;78.30;;;;;;5055441;28;20254;-88
2021/07/23 09:34:05;;;;;;;12.02;8.82;;;17.90;78.50;;;;;;5073202;28;20686;-89
2021/07/23 09:36:31;;;;;;;11.48;8.50;;;17.90;79.00;;;;;;5055399;28;20281;-88
2021/07/23 09:39:03;;;;;;;10.73;8.23;;;18.00;78.40;;;;;;5055285;28;20199;-88
2021/07/23 09:41:29;;;;;;;13.27;7.78;;;18.20;78.00;;;;;;5073271;28;20227;-88
2021/07/23 09:44:01;;;;;;;20.08;7.75;;;18.40;77.00;;;;;;5055179;28;20214;-87
2021/07/23 09:46:33;;;;;;;14.70;7.93;;;18.50;76.70;;;;;;5073110;28;20649;-87
2021/07/23 09:49:20;;;;;;;14.57;7.68;;;18.70;76.20;;;;;;5055200;28;20195;-86
2021/07/23 09:51:47;;;;;;;11.95;7.43;;;18.70;76.50;;;;;;5055614;28;20186;-87
2021/07/23 09:54:13;;;;;;;9.43;7.25;;;18.80;75.10;;;;;;5054975;28;20210;-87
2021/07/23 09:56:39;;;;;;;12.27;7.95;;;18.80;74.30;;;;;;5073069;28;20631;-87
2021/07/23 09:59:15;;;;;;;18.65;8.05;;;18.70;74.90;;;;;;5072926;28;20191;-87
2021/07/23 10:01:42;;;;;;;12.57;7.57;;;18.70;76.10;;;;;;5055075;28;20704;-87
2021/07/23 10:04:33;;;;;;;12.48;7.97;;;18.80;76.50;;;;;;5055052;28;20190;-87
2021/07/23 10:07:12;;;;;;;9.32;7.90;;;18.50;75.70;;;;;;5075923;28;20178;-87
2021/07/23 10:09:40;;;;;;;8.48;6.82;;;18.40;75.60;;;;;;5059312;28;20202;-87
2021/07/23 10:12:09;;;;;;;10.30;7.18;;;18.20;75.90;;;;;;5058968;28;20183;-87
2021/07/23 10:14:39;;;;;;;10.90;6.20;;;18.20;77.10;;;;;;5058767;28;20210;-86
2021/07/23 10:17:06;;;;;;;9.00;6.25;;;18.10;77.60;;;;;;5059488;28;20183;-89
2021/07/23 10:19:33;;;;;;;12.23;6.22;;;18.30;77.70;;;;;;5058914;28;20210;-89
2021/07/23 10:21:59;;;;;;;6.57;5.47;;;18.50;76.60;;;;;;5059065;28;20175;-89
2021/07/23 10:24:31;;;;;;;9.43;6.05;;;18.50;76.30;;;;;;5077174;28;20174;-89
2021/07/23 10:26:58;;;;;;;6.78;5.28;;;18.90;75.80;;;;;;5076782;28;20210;-89
2021/07/23 10:29:43;;;;;;;10.00;6.28;;;18.80;74.80;;;;;;5058928;28;20195;-88
2021/07/23 10:32:24;;;;;;;7.72;6.30;;;18.20;75.30;;;;;;5059083;28;20190;-89
2021/07/23 10:34:54;;;;;;;12.15;6.18;;;18.20;76.50;;;;;;5058613;28;20210;-88
2021/07/23 10:37:29;;;;;;;7.15;5.57;;;18.70;76.60;;;;;;5076625;28;20163;-89
2021/07/23 10:40:10;;;;;;;7.45;5.00;;;18.90;74.90;;;;;;5076510;28;20705;-89
2021/07/23 10:42:39;;;;;;;5.80;4.22;;;19.20;75.00;;;;;;5076509;28;20163;-89
2021/07/23 10:45:07;;;;;;;6.05;4.93;;;19.40;72.70;;;;;;5076488;28;20179;-89
2021/07/23 10:47:36;;;;;;;10.52;4.68;;;19.20;72.70;;;;;;5076416;28;20174;-89
2021/07/23 10:50:03;;;;;;;5.90;4.78;;;19.10;74.80;;;;;;5059371;28;20196;-89
2021/07/23 10:52:35;;;;;;;7.43;5.55;;;19.20;74.30;;;;;;5059008;28;20175;-89
2021/07/23 10:55:12;;;;;;;9.02;7.40;;;19.50;73.20;;;;;;5058437;28;20230;-89
2021/07/23 10:57:39;;;;;;;7.72;6.15;;;18.80;76.60;;;;;;5076214;28;20232;-89
2021/07/23 11:00:06;;;;;;;9.10;6.70;;;18.70;77.90;;;;;;5058273;28;20187;-89
2021/07/23 11:02:31;;;;;;;10.35;6.45;;;18.90;77.10;;;;;;5076070;28;20222;-89
2021/07/23 11:05:08;;;;;;;10.23;6.82;;;19.00;76.90;;;;;;5058512;28;20647;-89
2021/07/23 11:07:34;;;;;;;5.85;5.22;;;18.70;76.30;;;;;;5076349;28;20665;-89
2021/07/23 11:09:59;;;;;;;8.68;7.43;;;18.30;76.70;;;;;;5076031;28;20195;-88
2021/07/23 11:12:33;;;;;;;9.88;7.15;;;18.00;79.00;;;;;;5076065;28;20171;-89
2021/07/23 11:15:00;;;;;;;10.57;7.63;;;18.20;78.80;;;;;;5057757;28;20202;-88
2021/07/23 11:17:28;;;;;;;11.93;8.43;;;18.40;78.60;;;;;;5058009;28;20666;-89
2021/07/23 11:20:02;;;;;;;8.73;7.65;;;18.50;79.50;;;;;;5075671;28;20222;-89
2021/07/23 11:22:33;;;;;;;10.27;8.30;;;18.60;78.90;;;;;;5164564;22;20222;-86
2021/07/23 11:25:07;;;;;;;12.10;8.15;;;18.60;77.00;;;;;;5075765;28;20229;-85
2021/07/23 11:27:34;;;;;;;9.68;8.68;;;18.30;78.80;;;;;;5057675;28;20266;-85
2021/07/23 11:30:14;;;;;;;11.52;9.32;;;18.20;80.00;;;;;;5075439;28;20203;-86
2021/07/23 11:33:13;;;;;;;13.73;9.18;;;18.20;80.40;;;;;;5075243;28;20186;-85
2021/07/23 11:35:42;;;;;;;14.43;8.93;;;18.20;80.40;;;;;;5024523;28;20689;-85
2021/07/23 11:38:17;;;;;;;13.02;8.57;;;18.30;80.20;;;;;;5075355;28;20305;-85
2021/07/23 11:40:42;;;;;;;11.10;7.78;;;18.30;80.70;;;;;;5075631;28;20631;-85
2021/07/23 11:43:21;;;;;;;10.65;8.38;;;18.30;81.20;;;;;;5057013;28;20194;-85
2021/07/23 11:45:48;;;;;;;9.77;8.75;;;18.00;81.60;;;;;;5057368;28;20587;-85
2021/07/23 11:48:15;;;;;;;10.65;8.70;;;18.00;81.80;;;;;;5057227;28;20178;-87
2021/07/23 11:50:56;;;;;;;11.13;8.68;;;17.70;83.20;;;;;;5075405;28;20221;-86
2021/07/23 11:53:23;;;;;;;11.52;8.80;;;17.60;83.20;;;;;;5056813;28;20202;-88
2021/07/23 11:55:49;;;;;;;10.30;8.38;;;17.80;82.10;;;;;;5074740;28;20194;-87
2021/07/23 11:58:22;;;;;;;11.40;8.38;;;17.80;81.70;;;;;;5074641;28;20223;-86
2021/07/23 12:00:47;;;;;;;10.38;8.05;;;17.90;82.60;;;;;;5056660;28;20179;-87
2021/07/23 12:03:19;;;;;;;9.13;7.72;;;18.10;82.90;;;;;;5074566;28;20191;-87
2021/07/23 12:05:45;;;;;;;10.43;8.18;;;18.10;82.30;;;;;;5056631;28;20180;-87
2021/07/23 12:08:11;;;;;;;9.70;8.57;;;18.00;83.00;;;;;;5074470;28;20190;-87
2021/07/23 12:10:37;;;;;;;10.23;8.38;;;18.20;83.00;;;;;;5056578;28;20179;-86
2021/07/23 12:13:08;;;;;;;10.23;8.48;;;18.30;83.10;;;;;;5074634;28;20241;-87
2021/07/23 12:15:55;;;;;;;8.88;6.78;;;18.40;82.70;;;;;;5056723;28;20258;-86
2021/07/23 12:18:22;;;;;;;8.23;5.88;;;18.40;81.90;;;;;;5074886;28;20171;-85
2021/07/23 12:20:49;;;;;;;8.90;5.45;;;18.30;81.30;;;;;;5056612;28;20582;-85
2021/07/23 12:23:27;;;;;;;8.45;5.90;;;18.40;80.50;;;;;;5074339;28;20207;-86
2021/07/23 12:25:54;;;;;;;8.18;7.35;;;18.40;81.90;;;;;;5056588;28;20588;-86
2021/07/23 12:28:22;;;;;;;8.75;7.18;;;18.20;80.20;;;;;;5055769;28;20172;-86
2021/07/23 12:30:48;;;;;;;9.93;7.20;;;18.20;81.10;;;;;;5074322;28;20639;-85
2021/07/23 12:33:29;;;;;;;10.30;7.65;;;18.30;80.70;;;;;;5056620;28;20674;-84
2021/07/23 12:35:57;;;;;;;9.68;7.75;;;18.40;81.60;;;;;;5074500;28;20269;-84
2021/07/23 12:38:28;;;;;;;9.23;7.20;;;18.70;81.70;;;;;;5074510;28;20202;-84
2021/07/23 12:40:58;;;;;;;8.32;6.80;;;18.80;80.90;;;;;;5056147;28;20205;-84